createdAt,value
2019-05-19T00:01:37.212Z,16.11
2019-05-19T00:04:07.126Z,16.08
2019-05-19T00:06:37.358Z,16.00
2019-05-19T00:09:06.308Z,15.92
2019-05-19T00:11:36.410Z,15.87
2019-05-19T00:14:06.106Z,15.85
2019-05-19T00:16:35.539Z,15.84
2019-05-19T00:19:04.370Z,15.77
2019-05-19T00:21:33.298Z,15.71
2019-05-19T00:24:02.141Z,15.65
2019-05-19T00:26:32.172Z,15.62
2019-05-19T00:29:01.062Z,15.59
2019-05-19T00:31:31.360Z,15.55
2019-05-19T00:34:00.266Z,15.50
2019-05-19T00:36:29.095Z,15.51
2019-05-19T00:38:57.957Z,15.53
2019-05-19T00:41:26.803Z,15.54
2019-05-19T00:43:55.617Z,15.54
2019-05-19T00:46:25.879Z,15.57
2019-05-19T00:48:54.732Z,15.59
2019-05-19T00:51:23.636Z,15.59
2019-05-19T00:53:53.012Z,15.61
2019-05-19T00:56:21.828Z,15.63
2019-05-19T00:58:50.667Z,15.66
2019-05-19T01:01:19.509Z,15.66
2019-05-19T01:03:48.348Z,15.66
2019-05-19T01:06:17.215Z,15.61
2019-05-19T01:08:46.055Z,15.60
2019-05-19T01:11:14.882Z,15.61
2019-05-19T01:13:44.761Z,15.61
2019-05-19T01:16:13.609Z,15.62
2019-05-19T01:18:42.464Z,15.63
2019-05-19T01:21:11.309Z,15.64
2019-05-19T01:23:40.215Z,15.65
2019-05-19T01:26:10.160Z,15.66
2019-05-19T01:28:39.041Z,15.67
2019-05-19T01:31:09.004Z,15.66
2019-05-19T01:33:38.458Z,15.63
2019-05-19T01:36:07.563Z,15.59
2019-05-19T01:38:36.390Z,15.52
2019-05-19T01:41:05.213Z,15.45
2019-05-19T01:43:34.576Z,15.39
2019-05-19T01:46:03.430Z,15.33
2019-05-19T01:48:32.238Z,15.29
2019-05-19T01:51:01.800Z,15.25
2019-05-19T01:53:30.618Z,15.25
2019-05-19T01:55:59.424Z,15.26
2019-05-19T01:58:28.223Z,15.27
2019-05-19T02:00:57.790Z,15.24
2019-05-19T02:03:26.602Z,15.21
2019-05-19T02:05:56.392Z,15.20
2019-05-19T02:08:25.416Z,15.20
2019-05-19T02:10:54.198Z,15.20
2019-05-19T02:13:23.688Z,15.22
2019-05-19T02:15:52.536Z,15.18
2019-05-19T02:18:21.462Z,15.14
2019-05-19T02:20:50.545Z,15.09
2019-05-19T02:23:20.020Z,15.04
2019-05-19T02:25:49.052Z,15.03
2019-05-19T02:28:18.412Z,14.97
2019-05-19T02:30:48.864Z,14.93
2019-05-19T02:33:17.878Z,14.89
2019-05-19T02:35:46.699Z,14.86
2019-05-19T02:38:15.657Z,14.84
2019-05-19T02:40:47.177Z,14.80
2019-05-19T02:43:16.285Z,14.76
2019-05-19T02:45:45.173Z,14.70
2019-05-19T02:48:14.039Z,14.65
2019-05-19T02:50:52.034Z,14.57
2019-05-19T02:53:12.594Z,14.51
2019-05-19T02:55:41.507Z,14.50
2019-05-19T02:58:10.382Z,14.45
2019-05-19T03:00:39.982Z,14.42
2019-05-19T03:03:09.546Z,14.40
2019-05-19T03:05:39.339Z,14.36
2019-05-19T03:08:08.186Z,14.32
2019-05-19T03:10:37.540Z,14.29
2019-05-19T03:13:07.132Z,14.26
2019-05-19T03:15:36.748Z,14.22
2019-05-19T03:18:05.577Z,14.21
2019-05-19T03:20:34.428Z,14.19
2019-05-19T03:23:03.296Z,14.20
2019-05-19T03:25:32.276Z,14.20
2019-05-19T03:28:01.123Z,14.22
2019-05-19T03:31:34.953Z,14.22
2019-05-19T03:34:03.882Z,14.20
2019-05-19T03:36:32.750Z,14.19
2019-05-19T03:39:07.656Z,14.14
2019-05-19T03:41:36.481Z,14.12
2019-05-19T03:44:05.302Z,14.10
2019-05-19T03:46:34.115Z,14.08
2019-05-19T03:49:03.582Z,14.06
2019-05-19T03:51:33.363Z,14.05
2019-05-19T03:54:02.720Z,14.04
2019-05-19T03:56:31.544Z,14.04
2019-05-19T03:59:00.424Z,14.03
2019-05-19T04:01:29.350Z,14.00
2019-05-19T04:03:58.208Z,13.95
2019-05-19T04:06:27.623Z,13.93
2019-05-19T04:08:56.450Z,13.93
2019-05-19T04:11:25.323Z,13.95
2019-05-19T04:13:55.047Z,13.96
2019-05-19T04:16:24.884Z,13.93
2019-05-19T04:18:54.205Z,13.94
2019-05-19T04:21:25.306Z,13.95
2019-05-19T04:23:54.672Z,13.96
2019-05-19T04:26:23.533Z,13.97
2019-05-19T04:28:52.696Z,14.02
2019-05-19T04:31:21.639Z,14.03
2019-05-19T04:33:50.457Z,14.10
2019-05-19T04:36:19.419Z,14.13
2019-05-19T04:38:49.535Z,14.15
2019-05-19T04:41:18.559Z,14.21
2019-05-19T04:43:48.554Z,14.28
2019-05-19T04:46:17.371Z,14.41
2019-05-19T04:48:47.158Z,14.48
2019-05-19T04:51:16.049Z,14.50
2019-05-19T04:53:44.864Z,14.53
2019-05-19T04:56:13.702Z,14.59
2019-05-19T04:58:42.541Z,14.67
2019-05-19T05:01:12.011Z,14.72
2019-05-19T05:03:41.932Z,14.82
2019-05-19T05:06:10.796Z,14.93
2019-05-19T05:08:39.780Z,15.04
2019-05-19T05:11:08.935Z,15.43
2019-05-19T05:13:38.379Z,16.05
2019-05-19T05:16:07.218Z,16.54
2019-05-19T05:18:36.076Z,16.65
2019-05-19T05:21:05.789Z,16.67
2019-05-19T05:23:34.769Z,16.66
2019-05-19T05:26:04.019Z,16.83
2019-05-19T05:28:33.468Z,16.91
2019-05-19T05:31:02.404Z,16.91
2019-05-19T05:33:31.228Z,16.97
2019-05-19T05:36:00.212Z,17.14
2019-05-19T05:38:29.950Z,17.09
2019-05-19T05:40:58.798Z,17.10
2019-05-19T05:43:27.694Z,17.07
2019-05-19T05:45:56.524Z,17.10
2019-05-19T05:48:25.353Z,17.16
2019-05-19T05:50:55.462Z,17.39
2019-05-19T05:53:24.544Z,17.82
2019-05-19T05:55:57.481Z,18.06
2019-05-19T05:58:27.307Z,18.30
2019-05-19T06:00:58.157Z,18.72
2019-05-19T06:03:28.280Z,18.87
2019-05-19T06:05:58.551Z,19.02
2019-05-19T06:08:27.487Z,19.38
2019-05-19T06:10:57.552Z,19.47
2019-05-19T06:13:27.103Z,19.47
2019-05-19T06:15:55.919Z,19.73
2019-05-19T06:18:24.744Z,19.85
2019-05-19T06:20:54.250Z,19.82
2019-05-19T06:23:23.480Z,19.90
2019-05-19T06:25:53.258Z,19.99
2019-05-19T06:28:22.689Z,20.03
2019-05-19T06:30:51.792Z,20.19
2019-05-19T06:33:20.623Z,20.43
2019-05-19T06:35:49.480Z,20.76
2019-05-19T06:38:19.581Z,21.06
2019-05-19T06:40:49.350Z,21.34
2019-05-19T06:43:18.291Z,21.38
2019-05-19T06:45:47.168Z,21.28
2019-05-19T06:48:16.044Z,21.29
2019-05-19T06:50:44.906Z,21.41
2019-05-19T06:53:14.716Z,21.59
2019-05-19T06:55:43.508Z,21.71
2019-05-19T07:19:54.988Z,22.65
2019-05-19T07:22:23.800Z,22.84
2019-05-19T07:24:52.731Z,23.06
2019-05-19T07:27:22.073Z,23.12
2019-05-19T07:29:51.645Z,23.38
2019-05-19T07:32:21.229Z,23.65
2019-05-19T07:34:50.026Z,23.78
2019-05-19T07:37:20.018Z,23.60
2019-05-19T07:39:50.107Z,23.93
2019-05-19T07:42:18.989Z,23.94
2019-05-19T07:44:48.822Z,23.84
2019-05-19T07:47:19.420Z,24.08
2019-05-19T07:49:48.357Z,24.31
2019-05-19T07:52:17.965Z,24.57
2019-05-19T07:54:47.572Z,24.41
2019-05-19T07:57:17.164Z,24.35
2019-05-19T07:59:45.977Z,24.65
2019-05-19T08:02:16.980Z,24.73
2019-05-19T08:04:46.853Z,24.93
2019-05-19T08:07:15.732Z,25.19
2019-05-19T08:09:47.279Z,25.53
2019-05-19T08:12:17.470Z,25.51
2019-05-19T08:14:46.377Z,25.59
2019-05-19T08:17:15.276Z,25.63
2019-05-19T08:19:44.128Z,25.53
2019-05-19T08:22:15.159Z,25.20
2019-05-19T08:24:44.250Z,25.06
2019-05-19T08:27:13.819Z,25.06
2019-05-19T08:29:42.692Z,25.07
2019-05-19T08:32:11.529Z,25.15
2019-05-19T08:34:40.367Z,25.46
2019-05-19T08:37:10.299Z,25.79
2019-05-19T08:39:39.801Z,25.82
2019-05-19T08:42:09.324Z,25.91
2019-05-19T08:44:39.456Z,26.03
2019-05-19T08:47:08.374Z,25.93
2019-05-19T08:49:37.326Z,25.75
2019-05-19T08:52:06.231Z,25.68
2019-05-19T08:54:35.088Z,25.65
2019-05-19T08:57:04.528Z,25.53
2019-05-19T08:59:33.483Z,25.54
2019-05-19T09:02:02.471Z,25.74
2019-05-19T09:04:31.379Z,25.84
2019-05-19T09:07:00.267Z,26.06
2019-05-19T09:09:29.153Z,26.21
2019-05-19T09:11:58.084Z,26.17
2019-05-19T09:14:27.818Z,26.29
2019-05-19T09:16:56.641Z,26.40
2019-05-19T09:19:25.531Z,26.45
2019-05-19T09:21:54.450Z,26.28
2019-05-19T09:24:30.611Z,26.08
2019-05-19T09:26:52.529Z,25.63
2019-05-19T09:29:21.693Z,25.36
2019-05-19T09:31:50.783Z,25.51
2019-05-19T09:34:20.300Z,25.64
2019-05-19T09:36:50.250Z,25.75
2019-05-19T09:39:19.044Z,25.87
2019-05-19T09:41:47.931Z,25.88
2019-05-19T09:44:16.752Z,25.75
2019-05-19T09:46:46.557Z,25.58
2019-05-19T09:49:24.139Z,25.69
2019-05-19T09:51:53.096Z,25.89
2019-05-19T09:54:21.913Z,26.27
2019-05-19T09:56:50.859Z,26.50
2019-05-19T09:59:20.144Z,26.72
2019-05-19T10:01:48.967Z,27.10
2019-05-19T10:04:18.062Z,27.61
2019-05-19T10:06:47.878Z,28.07
2019-05-19T10:09:56.688Z,28.21
2019-05-19T10:12:25.744Z,28.36
2019-05-19T10:14:54.589Z,28.20
2019-05-19T10:17:24.330Z,28.17
2019-05-19T10:19:53.798Z,28.03
2019-05-19T10:22:24.428Z,27.81
2019-05-19T10:25:10.075Z,27.40
2019-05-19T10:27:22.260Z,27.53
2019-05-19T10:29:51.115Z,27.59
2019-05-19T10:32:19.990Z,27.55
2019-05-19T10:34:49.511Z,27.53
2019-05-19T10:37:19.371Z,27.48
2019-05-19T10:39:48.606Z,27.57
2019-05-19T10:42:17.559Z,27.88
2019-05-19T10:44:47.413Z,28.22
2019-05-19T10:47:17.387Z,28.35
2019-05-19T10:49:46.256Z,28.58
2019-05-19T10:52:15.083Z,28.73
2019-05-19T10:54:45.608Z,28.61
2019-05-19T10:57:14.391Z,28.28
2019-05-19T10:59:43.216Z,28.13
2019-05-19T11:02:12.141Z,27.90
2019-05-19T11:04:41.107Z,27.54
2019-05-19T11:07:10.712Z,27.35
2019-05-19T11:09:40.228Z,27.38
2019-05-19T11:12:09.103Z,27.37
2019-05-19T11:14:37.921Z,27.27
2019-05-19T11:17:07.992Z,27.27
2019-05-19T11:19:36.903Z,27.37
2019-05-19T11:22:05.726Z,27.22
2019-05-19T11:24:34.576Z,27.59
2019-05-19T11:27:05.827Z,28.02
2019-05-19T11:29:34.696Z,28.11
2019-05-19T11:32:03.825Z,27.92
2019-05-19T11:34:32.726Z,27.74
2019-05-19T11:37:01.593Z,27.77
2019-05-19T11:39:31.335Z,28.19
2019-05-19T11:42:00.182Z,28.60
2019-05-19T11:44:29.807Z,28.98
2019-05-19T11:46:58.692Z,29.39
2019-05-19T11:49:28.813Z,29.79
2019-05-19T11:51:57.688Z,29.65
2019-05-19T11:54:27.009Z,29.20
2019-05-19T11:56:55.870Z,28.94
2019-05-19T11:59:25.030Z,28.67
2019-05-19T12:01:53.879Z,28.59
2019-05-19T12:04:22.688Z,28.63
2019-05-19T12:06:51.545Z,28.59
2019-05-19T12:09:21.078Z,28.63
2019-05-19T12:11:50.703Z,28.85
2019-05-19T12:14:20.263Z,28.94
2019-05-19T12:16:49.285Z,28.59
2019-05-19T12:19:18.092Z,28.50
2019-05-19T12:21:46.932Z,28.78
2019-05-19T12:24:15.766Z,29.23
2019-05-19T12:26:45.242Z,29.15
2019-05-19T12:29:14.148Z,29.03
2019-05-19T12:31:42.991Z,28.88
2019-05-19T12:34:11.896Z,28.34
2019-05-19T12:36:40.908Z,27.77
2019-05-19T12:39:09.715Z,27.87
2019-05-19T12:41:39.222Z,27.83
2019-05-19T12:44:08.269Z,28.14
2019-05-19T12:46:37.152Z,28.26
2019-05-19T12:49:05.987Z,27.84
2019-05-19T12:51:34.844Z,27.83
2019-05-19T12:54:06.640Z,27.95
2019-05-19T12:56:39.530Z,27.97
2019-05-19T12:59:04.566Z,28.19
2019-05-19T13:01:39.651Z,28.65
2019-05-19T13:04:09.156Z,29.06
2019-05-19T13:06:38.061Z,29.55
2019-05-19T13:09:06.948Z,29.83
2019-05-19T13:11:36.082Z,29.75
2019-05-19T13:14:05.209Z,29.85
2019-05-19T13:16:36.304Z,29.80
2019-05-19T13:19:05.309Z,29.74
2019-05-19T13:21:34.204Z,29.41
2019-05-19T13:24:04.490Z,28.83
2019-05-19T13:26:33.836Z,28.30
2019-05-19T13:29:02.743Z,28.05
2019-05-19T13:31:32.903Z,27.97
2019-05-19T13:34:02.328Z,27.87
2019-05-19T13:36:31.176Z,27.94
2019-05-19T13:39:00.103Z,27.57
2019-05-19T13:41:28.952Z,26.96
2019-05-19T13:43:59.670Z,26.73
2019-05-19T13:46:26.654Z,26.40
2019-05-19T13:48:55.484Z,26.45
2019-05-19T13:51:24.348Z,26.36
2019-05-19T13:53:53.180Z,26.25
2019-05-19T13:56:22.138Z,26.13
2019-05-19T13:58:53.796Z,25.77
2019-05-19T14:01:28.790Z,25.84
2019-05-19T14:03:52.262Z,25.97
2019-05-19T14:06:20.396Z,25.73
2019-05-19T14:08:49.228Z,25.68
2019-05-19T14:11:18.125Z,25.66
2019-05-19T14:13:47.939Z,25.60
2019-05-19T14:16:16.782Z,25.60
2019-05-19T14:18:45.697Z,25.69
2019-05-19T14:21:14.512Z,25.72
2019-05-19T14:23:43.384Z,25.51
2019-05-19T14:26:12.760Z,25.17
2019-05-19T14:28:42.215Z,24.80
2019-05-19T14:31:13.803Z,24.49
2019-05-19T14:33:43.683Z,24.16
2019-05-19T14:36:12.543Z,23.93
2019-05-19T14:38:45.557Z,23.79
2019-05-19T14:41:14.394Z,23.66
2019-05-19T14:43:43.240Z,23.54
2019-05-19T14:46:12.196Z,23.55
2019-05-19T14:48:41.131Z,23.58
2019-05-19T14:51:10.401Z,23.51
2019-05-19T14:53:39.399Z,23.35
2019-05-19T14:56:09.548Z,23.29
2019-05-19T14:58:38.432Z,23.28
2019-05-19T15:01:07.512Z,23.29
2019-05-19T15:03:37.318Z,23.27
2019-05-19T15:06:06.128Z,23.25
2019-05-19T15:08:34.969Z,23.32
2019-05-19T15:11:04.982Z,23.45
2019-05-19T15:13:34.754Z,23.52
2019-05-19T15:16:03.573Z,23.56
2019-05-19T15:18:32.511Z,23.64
2019-05-19T15:21:01.433Z,23.77
2019-05-19T15:23:30.241Z,23.85
2019-05-19T15:25:59.158Z,23.94
2019-05-19T15:28:28.029Z,24.05
2019-05-19T15:30:58.636Z,24.14
2019-05-19T15:33:27.724Z,24.22
2019-05-19T15:35:56.459Z,24.21
2019-05-19T15:38:25.378Z,24.30
2019-05-19T15:40:54.209Z,24.41
2019-05-19T15:43:23.084Z,24.31
2019-05-19T15:45:52.317Z,24.42
2019-05-19T15:48:21.156Z,24.55
2019-05-19T15:50:50.697Z,24.49
2019-05-19T15:53:19.567Z,24.38
2019-05-19T15:55:48.437Z,24.46
2019-05-19T15:58:17.402Z,24.45
2019-05-19T16:00:46.260Z,24.46
2019-05-19T16:03:15.178Z,24.48
2019-05-19T16:05:44.064Z,24.37
2019-05-19T16:08:12.971Z,24.54
2019-05-19T16:10:41.910Z,24.65
2019-05-19T16:13:11.641Z,24.62
2019-05-19T16:15:40.560Z,24.64
2019-05-19T16:18:11.457Z,24.67
2019-05-19T16:20:40.459Z,24.60
2019-05-19T16:23:09.662Z,24.47
2019-05-19T16:25:38.537Z,24.54
2019-05-19T16:28:07.438Z,24.44
2019-05-19T16:30:38.370Z,24.41
2019-05-19T16:33:08.357Z,24.55
2019-05-19T16:35:37.286Z,24.72
2019-05-19T16:38:06.159Z,24.71
2019-05-19T16:40:35.638Z,24.52
2019-05-19T16:43:04.589Z,24.46
2019-05-19T16:45:33.484Z,24.50
2019-05-19T16:48:02.405Z,24.60
2019-05-19T16:50:31.368Z,24.46
2019-05-19T16:53:00.231Z,24.16
2019-05-19T16:55:29.796Z,23.98
2019-05-19T16:57:58.670Z,23.85
2019-05-19T17:00:27.548Z,23.59
2019-05-19T17:02:56.963Z,23.19
2019-05-19T17:05:26.645Z,23.16
2019-05-19T17:07:55.459Z,22.95
2019-05-19T17:10:24.593Z,22.62
2019-05-19T17:12:53.429Z,22.32
2019-05-19T17:15:22.430Z,21.77
2019-05-19T17:17:52.133Z,21.58
2019-05-19T17:20:22.017Z,21.23
2019-05-19T17:22:50.841Z,20.74
2019-05-19T17:25:19.703Z,20.55
2019-05-19T17:27:50.913Z,20.46
2019-05-19T17:30:19.967Z,20.38
2019-05-19T17:32:50.040Z,20.45
2019-05-19T17:35:19.848Z,20.44
2019-05-19T17:37:50.355Z,20.31
2019-05-19T17:40:19.925Z,20.24
2019-05-19T17:42:49.079Z,20.23
2019-05-19T17:45:18.608Z,20.20
2019-05-19T17:47:47.811Z,20.08
2019-05-19T17:50:17.724Z,19.84
2019-05-19T17:52:47.001Z,19.26
2019-05-19T17:55:15.851Z,18.90
2019-05-19T17:57:44.989Z,18.79
2019-05-19T18:00:15.596Z,18.57
2019-05-19T18:02:44.367Z,18.47
2019-05-19T18:05:14.066Z,18.38
2019-05-19T18:07:43.479Z,18.45
2019-05-19T18:10:12.358Z,18.40
2019-05-19T18:12:42.122Z,18.32
2019-05-19T18:15:11.053Z,18.16
2019-05-19T18:17:40.287Z,18.06
2019-05-19T18:20:22.917Z,17.88
2019-05-19T18:22:39.166Z,17.78
2019-05-19T18:25:09.646Z,17.76
2019-05-19T18:27:38.684Z,17.70
2019-05-19T18:30:08.865Z,17.71
2019-05-19T18:32:37.915Z,17.75
2019-05-19T18:35:07.636Z,17.77
2019-05-19T18:37:37.620Z,17.79
2019-05-19T18:40:07.110Z,17.85
2019-05-19T18:42:38.398Z,17.91
2019-05-19T18:45:07.372Z,17.96
2019-05-19T18:47:36.175Z,17.98
2019-05-19T18:50:05.452Z,17.92
2019-05-19T18:52:34.279Z,17.76
2019-05-19T18:55:03.644Z,17.68
2019-05-19T18:57:32.473Z,17.66
2019-05-19T19:00:03.162Z,17.63
2019-05-19T19:02:32.299Z,17.62
2019-05-19T19:05:01.927Z,17.58
2019-05-19T19:07:36.135Z,17.57
2019-05-19T19:10:05.220Z,17.54
2019-05-19T19:12:34.108Z,17.50
2019-05-19T19:15:02.989Z,17.44
2019-05-19T19:17:32.105Z,17.35
2019-05-19T19:20:00.923Z,17.26
2019-05-19T19:22:30.538Z,17.18
2019-05-19T19:25:00.070Z,17.08
2019-05-19T19:27:30.503Z,17.02
2019-05-19T19:30:03.871Z,16.93
2019-05-19T19:32:29.535Z,16.82
2019-05-19T19:34:58.414Z,16.74
2019-05-19T19:37:29.226Z,16.72
2019-05-19T19:40:03.343Z,16.70
2019-05-19T19:42:32.176Z,16.72
2019-05-19T19:45:02.463Z,16.73
2019-05-19T19:47:31.231Z,16.77
2019-05-19T19:50:00.067Z,16.72
2019-05-19T19:52:30.105Z,16.67
2019-05-19T19:54:59.170Z,16.66
2019-05-19T19:57:28.935Z,16.63
2019-05-19T19:59:59.843Z,16.60
2019-05-19T20:02:30.007Z,16.61
2019-05-19T20:04:59.619Z,16.53
2019-05-19T20:07:29.418Z,16.46
2019-05-19T20:09:58.938Z,16.39
2019-05-19T20:12:27.803Z,16.42
2019-05-19T20:14:56.645Z,16.42
2019-05-19T20:17:25.535Z,16.42
2019-05-19T20:19:54.452Z,16.43
2019-05-19T20:22:23.283Z,16.42
2019-05-19T20:24:52.783Z,16.40
2019-05-19T20:27:21.642Z,16.41
2019-05-19T20:29:51.117Z,16.39
2019-05-19T20:32:21.160Z,16.36
2019-05-19T20:34:50.712Z,16.32
2019-05-19T20:37:20.261Z,16.29
2019-05-19T20:39:49.104Z,16.25
2019-05-19T20:42:20.650Z,16.22
2019-05-19T20:44:50.232Z,16.17
2019-05-19T20:47:19.631Z,16.16
2019-05-19T20:49:48.532Z,16.18
2019-05-19T20:52:18.457Z,16.16
2019-05-19T20:54:48.618Z,16.14
2019-05-19T20:57:17.488Z,16.15
2019-05-19T20:59:46.460Z,16.15
2019-05-19T21:02:15.379Z,16.16
2019-05-19T21:04:45.056Z,16.14
2019-05-19T21:07:13.932Z,16.10
2019-05-19T21:09:44.255Z,16.10
2019-05-19T21:12:13.748Z,16.09
2019-05-19T21:14:43.236Z,16.08
2019-05-19T21:17:12.027Z,16.04
2019-05-19T21:19:41.463Z,15.98
2019-05-19T21:22:10.348Z,15.92
2019-05-19T21:24:39.207Z,15.85
2019-05-19T21:27:08.870Z,15.81
2019-05-19T21:29:37.943Z,15.79
2019-05-19T21:32:07.366Z,15.80
2019-05-19T21:34:37.063Z,15.80
2019-05-19T21:37:06.863Z,15.78
2019-05-19T21:39:36.282Z,15.73
2019-05-19T21:42:05.444Z,15.69
2019-05-19T21:44:34.469Z,15.62
2019-05-19T21:47:03.311Z,15.59
2019-05-19T21:49:32.698Z,15.54
2019-05-19T21:52:01.514Z,15.51
2019-05-19T21:54:30.319Z,15.45
2019-05-19T21:57:01.472Z,15.41
2019-05-19T21:59:30.604Z,15.35
2019-05-19T22:01:59.793Z,15.32
2019-05-19T22:04:29.343Z,15.26
2019-05-19T22:07:05.337Z,15.19
2019-05-19T22:09:35.455Z,15.14
2019-05-19T22:12:04.427Z,15.09
2019-05-19T22:14:33.806Z,15.03
2019-05-19T22:17:04.690Z,15.04
2019-05-19T22:19:33.554Z,15.03
2019-05-19T22:22:03.442Z,14.98
2019-05-19T22:24:32.263Z,14.90
2019-05-19T22:27:01.108Z,14.88
2019-05-19T22:29:29.935Z,14.85
2019-05-19T22:31:59.597Z,14.84
2019-05-19T22:34:28.455Z,14.86
2019-05-19T22:36:58.023Z,14.86
2019-05-19T22:39:26.891Z,14.85
2019-05-19T22:41:56.449Z,14.88
2019-05-19T22:44:25.380Z,14.85
2019-05-19T22:46:54.275Z,14.87
2019-05-19T22:49:23.101Z,14.89
2019-05-19T22:51:52.871Z,14.89
2019-05-19T22:54:21.681Z,14.92
2019-05-19T22:56:50.531Z,14.86
2019-05-19T22:59:20.400Z,14.82
2019-05-19T23:01:51.906Z,14.74
2019-05-19T23:04:17.016Z,14.75
2019-05-19T23:06:46.370Z,14.76
2019-05-19T23:09:15.795Z,14.75
2019-05-19T23:11:45.423Z,14.73
2019-05-19T23:14:14.309Z,14.73
2019-05-19T23:16:43.156Z,14.76
2019-05-19T23:19:15.673Z,14.78
2019-05-19T23:21:44.570Z,14.75
2019-05-19T23:24:13.368Z,14.75
2019-05-19T23:26:43.900Z,14.74
2019-05-19T23:29:13.625Z,14.76
2019-05-19T23:31:43.212Z,14.79
2019-05-19T23:34:14.807Z,14.78
2019-05-19T23:36:43.604Z,14.77
2019-05-19T23:39:12.419Z,14.76
2019-05-19T23:41:41.693Z,14.73
2019-05-19T23:44:10.554Z,14.71
2019-05-19T23:46:39.413Z,14.72
2019-05-19T23:49:08.276Z,14.70
2019-05-19T23:51:37.088Z,14.70
2019-05-19T23:54:05.963Z,14.68
2019-05-19T23:56:34.871Z,14.66
2019-05-19T23:59:03.759Z,14.66
